Time;durP1;ratioP1;P1;durP2;ratioP2;P2;SDS_P1;SDS_P2;PMS_P1;PMS_P2;Temp;Humidity;BMP_temperature;BMP_pressure;BME280_temperature;BME280_humidity;BME280_pressure;Samples;Min_cycle;Max_cycle;Signal;HPM_P1;HPM_P2
2023/01/25 00:00:07;;;;;;;8.77;6.93;;;2.60;99.90;3.60;98114.00;;;;5050525;28;20439;-65
2023/01/25 00:02:56;;;;;;;9.53;7.23;;;2.50;99.90;3.50;98110.00;;;;5049983;28;20431;-65
2023/01/25 00:05:45;;;;;;;8.67;5.90;;;2.50;99.90;3.50;98112.00;;;;5050282;28;20423;-66
2023/01/25 00:08:37;;;;;;;7.00;6.13;;;2.40;99.90;3.40;98112.00;;;;5048591;28;20471;-66
2023/01/25 00:11:25;;;;;;;10.77;6.73;;;2.30;99.90;3.30;98119.00;;;;5048167;28;20501;-65
2023/01/25 00:14:15;;;;;;;7.40;6.27;;;2.30;99.90;3.20;98115.00;;;;5028489;28;20435;-65
2023/01/25 00:17:05;;;;;;;11.83;7.07;;;2.20;99.90;3.20;98123.00;;;;5028144;28;21212;-66
2023/01/25 00:19:53;;;;;;;11.10;6.73;;;2.10;99.90;3.10;98122.00;;;;5027972;28;21371;-65
2023/01/25 00:22:42;;;;;;;7.97;6.10;;;2.10;99.90;2.90;98113.00;;;;5028414;28;20478;-66
2023/01/25 00:25:32;;;;;;;9.07;6.47;;;2.00;99.90;2.90;98113.00;;;;5030361;28;20432;-65
2023/01/25 00:28:21;;;;;;;12.13;7.20;;;1.90;99.90;2.90;98118.00;;;;5029503;28;20424;-65
2023/01/25 00:31:16;;;;;;;9.13;6.57;;;1.80;99.90;3.00;98121.00;;;;5030495;28;20484;-65
2023/01/25 00:34:39;;;;;;;10.03;6.10;;;1.80;99.90;2.80;98125.00;;;;5026788;28;20476;-65
2023/01/25 00:37:36;;;;;;;9.00;6.97;;;1.70;99.90;2.80;98108.00;;;;5029978;28;20436;-64
2023/01/25 00:40:25;;;;;;;7.63;6.23;;;1.70;99.90;2.70;98117.00;;;;5048468;28;20451;-66
2023/01/25 00:43:15;;;;;;;8.47;5.80;;;1.60;99.90;2.60;98114.00;;;;5036050;28;20437;-66
2023/01/25 00:46:04;;;;;;;8.33;6.50;;;1.60;99.90;2.70;98121.00;;;;5024505;28;20434;-65
2023/01/25 00:48:54;;;;;;;9.63;6.53;;;1.50;99.90;2.60;98128.00;;;;5018742;28;20460;-65
2023/01/25 00:51:43;;;;;;;12.33;6.67;;;1.60;99.90;2.60;98117.00;;;;5024839;28;20443;-66
2023/01/25 00:54:31;;;;;;;8.27;6.77;;;1.50;99.90;2.50;98124.00;;;;5025654;28;20425;-66
2023/01/25 00:57:20;;;;;;;9.00;6.57;;;1.50;99.90;2.50;98121.00;;;;5025332;28;20467;-66
2023/01/25 01:00:12;;;;;;;7.63;6.83;;;1.40;99.90;2.40;98122.00;;;;5049016;28;20890;-66
2023/01/25 01:03:01;;;;;;;10.57;7.17;;;1.40;99.90;2.30;98122.00;;;;5049165;28;20485;-65
2023/01/25 01:05:59;;;;;;;9.57;6.70;;;1.30;99.90;2.40;98122.00;;;;5049989;28;20439;-65
2023/01/25 01:08:48;;;;;;;9.03;7.63;;;1.30;99.90;2.40;98118.00;;;;5048166;28;20415;-66
2023/01/25 01:11:37;;;;;;;12.87;6.90;;;1.30;99.90;2.40;98112.00;;;;5047683;28;21016;-66
2023/01/25 01:14:25;;;;;;;10.43;7.43;;;1.30;99.90;2.20;98118.00;;;;5029730;28;20432;-66
2023/01/25 01:17:15;;;;;;;8.60;7.07;;;1.30;99.90;2.00;98120.00;;;;5028904;28;20456;-65
2023/01/25 01:20:05;;;;;;;10.97;7.30;;;1.20;99.90;2.10;98107.00;;;;5018433;28;20954;-65
2023/01/25 01:22:55;;;;;;;11.40;6.87;;;1.20;99.90;2.20;98112.00;;;;5029373;28;20440;-65
2023/01/25 01:25:43;;;;;;;10.23;7.00;;;1.20;99.90;1.80;98107.00;;;;5028276;28;20798;-66
2023/01/25 01:28:33;;;;;;;11.73;6.97;;;1.20;99.90;1.50;98093.00;;;;5029053;28;20428;-64
2023/01/25 01:31:23;;;;;;;10.00;6.00;;;1.00;99.90;1.70;98109.00;;;;5029168;28;20440;-66
2023/01/25 01:34:14;;;;;;;10.30;6.77;;;0.90;99.90;1.90;98110.00;;;;5028611;28;20429;-66
2023/01/25 01:37:03;;;;;;;8.17;6.60;;;0.80;99.90;1.70;98109.00;;;;5044648;28;20431;-66
2023/01/25 01:39:52;;;;;;;8.27;5.83;;;0.90;99.90;1.80;98112.00;;;;5048304;28;20427;-65
2023/01/25 01:42:57;;;;;;;9.57;5.63;;;0.90;99.90;1.90;98115.00;;;;5048675;28;20412;-65
2023/01/25 01:45:56;;;;;;;8.73;6.13;;;0.80;99.90;1.70;98108.00;;;;5048685;28;20843;-65
2023/01/25 01:48:49;;;;;;;8.17;6.07;;;0.80;99.90;1.80;98110.00;;;;5033700;28;20432;-66
2023/01/25 01:51:46;;;;;;;8.93;6.43;;;0.70;99.90;1.50;98111.00;;;;5019645;28;20452;-66
2023/01/25 01:54:38;;;;;;;15.23;8.07;;;0.70;99.90;1.60;98112.00;;;;5022277;28;20450;-65
2023/01/25 01:57:35;;;;;;;7.73;6.40;;;0.70;99.90;1.80;98118.00;;;;5028285;28;20529;-65
2023/01/25 02:00:28;;;;;;;10.60;6.30;;;0.70;99.90;1.80;98118.00;;;;5028620;28;20448;-66
2023/01/25 02:03:17;;;;;;;7.67;6.37;;;0.70;99.90;2.00;98109.00;;;;5028322;28;20539;-66
2023/01/25 02:06:14;;;;;;;8.63;7.60;;;0.80;99.90;2.00;98115.00;;;;5028487;28;20863;-65
2023/01/25 02:09:04;;;;;;;8.03;6.57;;;1.70;99.90;1.70;98117.00;;;;5028325;28;20425;-66
2023/01/25 02:11:53;;;;;;;7.90;6.23;;;0.80;99.90;1.40;98094.00;;;;5024493;28;20982;-66
2023/01/25 02:14:48;;;;;;;5.93;5.00;;;0.70;99.90;1.20;98095.00;;;;5045778;28;20470;-66
2023/01/25 02:17:40;;;;;;;7.43;5.23;;;0.60;99.90;1.20;98098.00;;;;5047884;28;20431;-66
2023/01/25 02:20:38;;;;;;;8.03;4.90;;;0.60;99.90;1.30;98100.00;;;;5051754;28;20931;-66
2023/01/25 02:23:34;;;;;;;7.77;5.30;;;0.60;99.90;1.40;98099.00;;;;5052180;28;20480;-66
2023/01/25 02:26:25;;;;;;;7.27;5.57;;;0.60;99.90;1.50;98091.00;;;;5052147;28;20447;-65
2023/01/25 02:29:14;;;;;;;8.27;6.67;;;0.60;99.90;1.60;98092.00;;;;5051436;28;20415;-65
2023/01/25 02:32:05;;;;;;;9.30;7.00;;;0.70;99.90;1.70;98101.00;;;;5052254;28;20489;-66
2023/01/25 02:34:54;;;;;;;9.67;6.57;;;0.70;99.90;1.80;98090.00;;;;5041426;28;20498;-65
2023/01/25 02:37:43;;;;;;;8.10;5.97;;;0.70;99.90;1.70;98090.00;;;;5019711;28;20428;-65
2023/01/25 02:40:38;;;;;;;6.77;5.37;;;0.90;99.90;1.80;98097.00;;;;5031908;28;20554;-66
2023/01/25 02:43:32;;;;;;;7.40;5.17;;;0.70;99.90;1.60;98088.00;;;;5032108;28;20482;-65
2023/01/25 02:46:26;;;;;;;10.70;5.40;;;0.70;99.90;1.70;98078.00;;;;5031982;28;20466;-66
2023/01/25 02:49:16;;;;;;;9.07;5.40;;;0.70;99.90;1.60;98088.00;;;;5030929;28;20443;-66
2023/01/25 02:52:06;;;;;;;8.77;5.47;;;0.70;99.90;1.50;98081.00;;;;5042000;28;21004;-66
2023/01/25 02:54:54;;;;;;;8.23;5.83;;;0.70;99.90;1.60;98081.00;;;;5044199;28;21552;-64
2023/01/25 02:57:43;;;;;;;8.20;4.67;;;0.70;99.90;1.70;98083.00;;;;5051492;28;20450;-67
2023/01/25 03:00:33;;;;;;;7.53;5.97;;;0.80;99.90;1.70;98073.00;;;;5051390;28;20533;-66
2023/01/25 03:03:22;;;;;;;7.33;5.13;;;0.80;99.90;1.70;98072.00;;;;5051154;28;20473;-67
2023/01/25 03:06:11;;;;;;;6.23;4.60;;;0.70;99.90;1.50;98076.00;;;;5052082;28;20501;-66
2023/01/25 03:09:00;;;;;;;11.73;5.77;;;0.70;99.90;1.40;98050.00;;;;5051706;28;20454;-66
2023/01/25 03:11:49;;;;;;;7.43;5.97;;;0.60;99.90;1.40;98061.00;;;;5046737;28;20487;-66
2023/01/25 03:14:38;;;;;;;7.50;6.00;;;0.60;99.90;1.30;98052.00;;;;5031336;28;20486;-66
2023/01/25 03:17:30;;;;;;;9.17;5.40;;;0.50;99.90;1.20;98058.00;;;;5030515;28;20954;-66
2023/01/25 03:20:19;;;;;;;6.73;5.33;;;0.50;99.90;1.30;98066.00;;;;5031123;28;20440;-66
2023/01/25 03:23:07;;;;;;;5.93;5.07;;;0.50;99.90;1.50;98055.00;;;;5030828;28;20459;-67
2023/01/25 03:26:04;;;;;;;8.83;5.17;;;0.50;99.90;1.60;98053.00;;;;5030970;28;20425;-66
2023/01/25 03:28:53;;;;;;;8.53;5.83;;;0.50;99.90;1.40;98050.00;;;;5030280;28;20923;-67
2023/01/25 03:31:42;;;;;;;5.33;4.70;;;0.50;99.90;1.00;98046.00;;;;5029854;28;20559;-67
2023/01/25 03:34:32;;;;;;;7.27;6.40;;;0.40;99.90;1.10;98043.00;;;;5031309;28;20431;-67
2023/01/25 03:37:21;;;;;;;6.97;5.53;;;0.30;99.90;1.20;98045.00;;;;5031438;28;21005;-67
2023/01/25 03:40:11;;;;;;;4.97;4.37;;;0.30;99.90;1.10;98041.00;;;;5030745;28;21029;-67
2023/01/25 03:43:00;;;;;;;5.27;4.77;;;0.30;99.90;1.10;98040.00;;;;5031303;28;20478;-67
2023/01/25 03:45:53;;;;;;;8.93;5.67;;;0.30;99.90;1.20;98050.00;;;;5031473;28;20814;-67
2023/01/25 03:48:41;;;;;;;6.17;4.70;;;0.30;99.90;1.10;98035.00;;;;5030154;28;20451;-67
2023/01/25 03:51:31;;;;;;;7.13;5.43;;;0.30;99.90;0.90;98031.00;;;;5029766;28;20476;-67
2023/01/25 03:54:20;;;;;;;6.50;5.30;;;0.30;99.90;1.10;98040.00;;;;5043921;28;20420;-67
2023/01/25 03:57:09;;;;;;;5.67;4.77;;;0.30;99.90;1.10;98035.00;;;;5050867;28;21005;-67
2023/01/25 03:59:58;;;;;;;10.10;4.97;;;0.30;99.90;1.10;98051.00;;;;5050474;28;20935;-67
2023/01/25 04:02:46;;;;;;;6.43;5.07;;;0.20;99.90;0.80;98045.00;;;;5050404;28;20795;-67
2023/01/25 04:05:35;;;;;;;8.30;5.53;;;0.20;99.90;0.80;98040.00;;;;5050746;28;20428;-67
2023/01/25 04:08:26;;;;;;;3.53;3.23;;;0.10;99.90;0.70;98036.00;;;;5049328;28;20431;-67
2023/01/25 04:11:14;;;;;;;6.77;5.37;;;0.10;99.90;0.60;98032.00;;;;5050434;28;20554;-67
2023/01/25 04:14:03;;;;;;;5.53;3.40;;;0.00;99.90;0.50;98022.00;;;;5023263;28;20417;-67
2023/01/25 04:16:52;;;;;;;8.40;4.93;;;0.00;99.90;0.70;98025.00;;;;5030044;28;20417;-67
2023/01/25 04:19:41;;;;;;;9.53;6.53;;;0.00;99.90;0.50;98015.00;;;;5030127;28;20455;-67
2023/01/25 04:22:29;;;;;;;5.67;4.10;;;-0.10;99.90;0.70;98021.00;;;;5029776;28;20479;-67
2023/01/25 04:25:19;;;;;;;8.90;5.27;;;-0.10;99.90;0.60;98007.00;;;;5031055;28;20471;-67
2023/01/25 04:28:08;;;;;;;6.60;4.70;;;-0.10;99.90;0.70;98017.00;;;;5028987;28;20782;-67
2023/01/25 04:30:57;;;;;;;5.43;3.97;;;-0.10;99.90;0.80;98022.00;;;;5030329;28;20463;-67
2023/01/25 04:33:46;;;;;;;7.07;3.87;;;-0.10;99.90;0.90;98023.00;;;;5029453;28;20938;-67
2023/01/25 04:36:36;;;;;;;5.93;4.33;;;-0.10;99.90;0.70;98021.00;;;;5042223;28;20443;-67
2023/01/25 04:39:24;;;;;;;6.47;4.07;;;-0.10;99.90;0.70;98005.00;;;;5049691;28;20931;-67
2023/01/25 04:42:15;;;;;;;7.00;4.60;;;-0.10;99.90;0.70;98014.00;;;;5049601;28;20447;-67
2023/01/25 04:45:04;;;;;;;3.83;3.20;;;-0.20;99.90;0.70;98012.00;;;;5049436;28;20435;-67
2023/01/25 04:47:57;;;;;;;8.10;3.87;;;-0.10;99.90;0.50;98014.00;;;;5042195;28;20428;-68
2023/01/25 04:50:46;;;;;;;5.27;3.93;;;-0.20;99.90;0.70;98015.00;;;;5024323;28;20467;-67
2023/01/25 04:53:38;;;;;;;6.03;4.37;;;-0.10;99.90;0.40;98005.00;;;;5029088;28;20428;-67
2023/01/25 04:56:27;;;;;;;4.33;3.67;;;-0.20;99.90;0.80;98009.00;;;;5028970;28;20424;-67
2023/01/25 04:59:17;;;;;;;4.73;4.20;;;-0.10;99.90;0.80;98011.00;;;;5028812;28;21155;-67
2023/01/25 05:02:05;;;;;;;4.83;3.43;;;-0.10;99.90;0.80;98015.00;;;;5028795;28;20525;-67
2023/01/25 05:04:54;;;;;;;4.63;4.13;;;-0.20;99.90;0.50;98002.00;;;;5029970;28;20915;-67
2023/01/25 05:07:43;;;;;;;5.90;4.20;;;-0.20;99.90;0.60;98011.00;;;;5031941;28;21165;-68
2023/01/25 05:10:31;;;;;;;5.73;4.53;;;-0.20;99.90;0.50;98011.00;;;;5024653;28;20587;-68
2023/01/25 05:13:20;;;;;;;8.50;5.70;;;-0.20;99.90;0.70;98006.00;;;;5025967;28;20820;-67
2023/01/25 05:16:10;;;;;;;5.87;5.03;;;-0.20;99.90;0.70;98017.00;;;;5018554;28;20482;-68
2023/01/25 05:18:59;;;;;;;4.83;3.87;;;-0.20;99.90;0.50;98009.00;;;;5021554;28;20436;-67
2023/01/25 05:22:00;;;;;;;5.80;4.57;;;-0.20;99.90;0.50;98005.00;;;;5025039;28;20518;-67
2023/01/25 05:24:49;;;;;;;4.80;3.00;;;-0.10;99.90;0.40;98007.00;;;;5029314;28;20510;-68
2023/01/25 05:27:36;;;;;;;4.27;3.70;;;-0.20;99.90;0.40;98003.00;;;;5025958;28;20437;-68
2023/01/25 05:30:25;;;;;;;4.47;3.20;;;-0.20;99.90;0.20;98000.00;;;;5027586;28;20446;-68
2023/01/25 05:33:15;;;;;;;5.67;4.03;;;-0.20;99.90;0.20;97994.00;;;;5043031;28;20427;-67
2023/01/25 05:36:04;;;;;;;5.40;3.97;;;-0.30;99.90;0.40;97994.00;;;;5018229;28;20440;-68
2023/01/25 05:38:53;;;;;;;5.87;4.20;;;-0.30;99.90;0.70;97983.00;;;;5018641;28;20498;-67
2023/01/25 05:41:41;;;;;;;6.00;4.47;;;-0.30;99.90;0.60;97988.00;;;;5021888;28;20460;-67
2023/01/25 05:44:30;;;;;;;4.43;3.57;;;-0.30;99.90;0.30;98000.00;;;;5025840;28;20823;-68
2023/01/25 05:47:19;;;;;;;5.47;4.73;;;-0.30;99.90;0.30;97996.00;;;;5027276;28;20953;-67
2023/01/25 05:50:11;;;;;;;5.23;3.57;;;-0.40;99.90;0.50;97996.00;;;;5022125;28;20436;-68
2023/01/25 05:52:59;;;;;;;5.73;4.27;;;-0.40;99.90;0.70;98005.00;;;;5027190;28;20491;-67
2023/01/25 05:55:48;;;;;;;3.60;3.27;;;-0.30;99.90;0.80;98005.00;;;;5029632;28;20421;-67
2023/01/25 05:58:37;;;;;;;5.87;4.10;;;-0.30;99.90;0.30;98009.00;;;;5024955;28;20425;-67
2023/01/25 06:01:27;;;;;;;6.37;4.40;;;-0.30;99.90;0.30;98007.00;;;;5031878;28;21030;-67
2023/01/25 06:04:16;;;;;;;5.33;4.30;;;-0.40;99.90;0.40;98004.00;;;;5027385;28;20446;-67
2023/01/25 06:07:06;;;;;;;5.83;3.67;;;-0.30;99.90;0.20;98015.00;;;;5023923;28;20432;-67
2023/01/25 06:09:55;;;;;;;5.13;4.13;;;-0.40;99.90;0.10;98015.00;;;;5025343;28;20416;-67
2023/01/25 06:12:44;;;;;;;13.80;5.57;;;-0.40;99.90;0.20;98024.00;;;;5022947;28;20892;-67
2023/01/25 06:15:32;;;;;;;6.33;5.30;;;-0.40;99.90;0.30;98011.00;;;;5053568;28;20419;-68
2023/01/25 06:18:23;;;;;;;10.57;4.57;;;-0.40;99.90;0.20;98017.00;;;;5051992;28;20964;-70
2023/01/25 06:21:12;;;;;;;6.33;5.40;;;-0.50;99.90;0.00;98018.00;;;;5052679;28;20451;-68
2023/01/25 06:24:02;;;;;;;7.67;4.33;;;-0.50;99.90;0.00;98013.00;;;;5051946;28;21013;-67
2023/01/25 06:26:50;;;;;;;7.40;4.73;;;-0.50;99.90;0.40;98030.00;;;;5027779;28;20471;-67
2023/01/25 06:29:39;;;;;;;7.50;4.43;;;-0.40;99.90;0.60;98031.00;;;;5031398;28;20483;-68
2023/01/25 06:32:32;;;;;;;4.50;4.10;;;-0.40;99.90;0.70;98026.00;;;;5032066;28;20475;-68
2023/01/25 06:35:21;;;;;;;7.23;5.03;;;-0.40;99.90;0.60;98025.00;;;;5024385;28;20437;-67
2023/01/25 06:38:10;;;;;;;8.30;5.37;;;-0.40;99.90;0.30;98037.00;;;;5024341;28;20429;-67
2023/01/25 06:41:06;;;;;;;5.77;4.60;;;-0.40;99.90;0.20;98035.00;;;;5020398;28;20978;-67
2023/01/25 06:43:55;;;;;;;8.90;4.43;;;-0.50;99.90;0.30;98036.00;;;;5027092;28;20465;-68
2023/01/25 06:46:44;;;;;;;6.57;4.13;;;-0.50;99.90;0.20;98036.00;;;;5029495;28;20826;-68
2023/01/25 06:49:32;;;;;;;6.83;5.47;;;-0.60;99.90;0.50;98041.00;;;;5019591;28;20455;-68
2023/01/25 06:52:21;;;;;;;8.17;5.97;;;-0.50;99.90;0.50;98030.00;;;;5025664;28;20475;-68
2023/01/25 06:55:12;;;;;;;5.13;4.70;;;-0.50;99.90;0.50;98040.00;;;;5031381;28;20427;-68
2023/01/25 06:58:02;;;;;;;13.23;4.77;;;-0.50;99.90;0.60;98036.00;;;;5046411;28;20487;-68
2023/01/25 07:00:51;;;;;;;6.53;3.83;;;-0.40;99.90;0.60;98035.00;;;;5052402;28;20447;-69
2023/01/25 07:03:40;;;;;;;6.97;5.23;;;-0.40;99.90;0.50;98047.00;;;;5051567;28;20438;-68
2023/01/25 07:06:33;;;;;;;4.43;3.37;;;-0.40;99.90;0.60;98044.00;;;;5051155;28;20428;-68
2023/01/25 07:09:23;;;;;;;6.10;4.70;;;-0.40;99.90;0.60;98052.00;;;;5050748;28;20443;-68
2023/01/25 07:12:11;;;;;;;6.70;4.40;;;-0.30;99.90;0.80;98061.00;;;;5045189;28;20475;-68
2023/01/25 07:15:01;;;;;;;8.57;4.10;;;-0.30;99.90;0.90;98050.00;;;;5019077;28;20432;-68
2023/01/25 07:17:50;;;;;;;7.43;4.50;;;-0.30;99.90;0.80;98048.00;;;;5030786;28;20439;-68
2023/01/25 07:20:39;;;;;;;7.40;5.43;;;-0.20;99.90;0.50;98032.00;;;;5031043;28;20977;-68
2023/01/25 07:23:30;;;;;;;7.37;5.07;;;-0.20;99.90;0.60;98034.00;;;;5031186;28;20444;-68
2023/01/25 07:26:22;;;;;;;6.30;4.37;;;-0.30;99.90;0.40;98029.00;;;;5031486;28;20927;-68
2023/01/25 07:29:14;;;;;;;6.53;5.53;;;-0.30;99.90;0.40;98032.00;;;;5030597;28;20435;-68
2023/01/25 07:32:05;;;;;;;11.00;7.30;;;-0.40;99.90;0.70;98025.00;;;;5030623;28;20498;-68
2023/01/25 07:34:54;;;;;;;17.10;8.60;;;-0.30;99.90;0.70;98029.00;;;;5031467;28;20829;-68
2023/01/25 07:37:42;;;;;;;15.83;9.23;;;-0.30;99.90;1.00;98021.00;;;;5018459;28;20496;-68
2023/01/25 07:40:31;;;;;;;16.20;10.00;;;-0.20;99.90;1.10;98016.00;;;;5031244;28;20457;-68
2023/01/25 07:43:20;;;;;;;14.00;9.87;;;-0.10;99.90;1.20;98007.00;;;;5031889;28;20498;-68
2023/01/25 07:46:11;;;;;;;15.03;8.90;;;0.00;99.90;1.20;98004.00;;;;5023241;28;20421;-68
2023/01/25 07:49:01;;;;;;;18.10;9.43;;;0.10;99.90;1.40;98016.00;;;;5034297;28;20436;-68
2023/01/25 07:51:50;;;;;;;15.10;10.17;;;0.10;99.90;1.50;98004.00;;;;5046841;28;20469;-67
2023/01/25 07:54:39;;;;;;;12.53;9.67;;;0.20;99.90;1.50;98023.00;;;;5050251;28;20423;-68
2023/01/25 07:57:28;;;;;;;12.67;8.93;;;0.30;99.90;1.60;98006.00;;;;5051031;28;20431;-68
2023/01/25 08:00:18;;;;;;;10.77;7.43;;;0.30;99.90;1.50;98009.00;;;;5050869;28;20467;-68
2023/01/25 08:03:06;;;;;;;15.60;9.53;;;0.40;99.90;1.60;98014.00;;;;5050058;28;20431;-68
2023/01/25 08:05:57;;;;;;;9.63;7.47;;;0.50;99.90;1.70;98006.00;;;;5050522;28;20438;-68
2023/01/25 08:08:48;;;;;;;14.00;8.27;;;0.50;99.90;1.60;97993.00;;;;5049759;28;20511;-68
2023/01/25 08:11:37;;;;;;;13.43;9.77;;;0.60;99.90;1.90;97996.00;;;;5048624;28;20447;-68
2023/01/25 08:14:26;;;;;;;11.60;8.90;;;0.60;99.90;2.00;98009.00;;;;5030087;28;20518;-68
2023/01/25 08:17:14;;;;;;;9.20;7.20;;;0.70;99.90;2.10;98008.00;;;;5030731;28;20973;-68
2023/01/25 08:20:03;;;;;;;13.83;8.43;;;0.80;99.90;2.30;98006.00;;;;5029804;28;20807;-68
2023/01/25 08:22:54;;;;;;;12.43;9.70;;;0.90;99.90;2.40;98006.00;;;;5029894;28;20432;-68
2023/01/25 08:25:42;;;;;;;12.77;8.23;;;1.00;99.90;2.40;98011.00;;;;5030181;28;20951;-68
2023/01/25 08:28:31;;;;;;;10.90;8.53;;;1.10;99.90;2.50;98012.00;;;;5040479;28;21317;-68
2023/01/25 08:31:23;;;;;;;12.20;8.10;;;1.20;99.90;2.40;98004.00;;;;5049074;28;20490;-68
2023/01/25 08:34:13;;;;;;;4.80;4.30;;;1.20;99.90;2.20;98008.00;;;;5049577;28;20820;-67
2023/01/25 08:37:02;;;;;;;7.30;5.97;;;1.20;99.90;2.20;98011.00;;;;5049530;28;20415;-67
2023/01/25 08:39:52;;;;;;;8.17;6.40;;;1.20;99.90;2.30;98017.00;;;;5049554;28;20424;-68
2023/01/25 08:42:42;;;;;;;8.37;6.07;;;1.10;99.90;2.30;97999.00;;;;5037876;28;20495;-68
2023/01/25 08:45:33;;;;;;;15.60;7.23;;;1.20;99.90;2.50;98013.00;;;;5024407;28;20433;-68
2023/01/25 08:48:22;;;;;;;9.67;7.30;;;1.20;99.90;2.50;98006.00;;;;5029889;28;20444;-68
2023/01/25 08:51:13;;;;;;;11.63;7.67;;;1.20;99.90;2.50;98004.00;;;;5040239;28;20997;-68
2023/01/25 08:54:05;;;;;;;15.00;8.73;;;1.20;99.90;2.60;98002.00;;;;5048966;28;20471;-68
2023/01/25 08:56:55;;;;;;;18.73;8.47;;;1.30;99.90;2.70;98009.00;;;;5048803;28;20809;-68
2023/01/25 08:59:44;;;;;;;11.20;8.53;;;1.40;99.90;2.80;98001.00;;;;5049167;28;20481;-68
2023/01/25 09:02:33;;;;;;;13.40;9.10;;;1.40;99.90;2.70;98003.00;;;;5039239;28;20484;-68
2023/01/25 09:05:22;;;;;;;11.87;8.57;;;1.40;99.90;2.80;98012.00;;;;5035392;28;20432;-68
2023/01/25 09:08:10;;;;;;;12.87;8.63;;;1.50;99.90;3.00;98004.00;;;;5030420;28;20467;-67
2023/01/25 09:11:02;;;;;;;18.30;10.20;;;1.60;99.90;3.00;97999.00;;;;5029585;28;20459;-68
2023/01/25 09:13:52;;;;;;;14.37;9.53;;;1.60;99.90;3.10;98006.00;;;;5021069;28;20452;-66
2023/01/25 09:16:40;;;;;;;16.63;9.57;;;1.70;99.90;3.20;98000.00;;;;5029562;28;20428;-68
2023/01/25 09:19:29;;;;;;;14.80;9.57;;;1.80;99.90;3.30;98015.00;;;;5028987;28;20544;-67
2023/01/25 09:22:18;;;;;;;17.43;10.23;;;1.90;99.90;3.30;98006.00;;;;5029376;28;20476;-67
2023/01/25 09:25:07;;;;;;;14.07;9.07;;;1.90;99.90;3.10;98008.00;;;;5068348;22;20854;-85
2023/01/25 09:27:56;;;;;;;20.47;9.90;;;1.90;99.90;3.10;98005.00;;;;5060843;28;20458;-86
2023/01/25 09:30:47;;;;;;;20.00;9.63;;;1.90;99.90;3.30;98012.00;;;;5070332;28;20496;-86
2023/01/25 09:33:52;;;;;;;15.03;9.27;;;2.00;99.90;3.60;97999.00;;;;5067440;28;21023;-85
2023/01/25 09:36:41;;;;;;;18.47;10.30;;;2.10;99.90;3.80;97994.00;;;;5052204;28;20423;-87
2023/01/25 09:39:30;;;;;;;13.03;9.97;;;2.90;99.90;4.00;97990.00;;;;5058179;28;20419;-87
2023/01/25 09:42:49;;;;;;;16.33;9.50;;;3.40;99.90;4.10;98002.00;;;;5070720;28;20442;-86
2023/01/25 09:45:37;;;;;;;14.70;10.77;;;2.50;99.90;4.20;97987.00;;;;5071252;28;20442;-87
2023/01/25 09:48:37;;;;;;;16.33;10.37;;;2.60;99.90;4.30;97993.00;;;;5070415;28;20434;-85
2023/01/25 09:51:35;;;;;;;15.13;9.17;;;2.80;99.90;4.50;97992.00;;;;5070076;28;20208;-87
2023/01/25 09:54:24;;;;;;;15.00;9.23;;;4.70;99.90;4.50;97985.00;;;;5063924;28;20493;-86
2023/01/25 09:57:18;;;;;;;14.93;9.80;;;4.50;99.90;4.80;97976.00;;;;5063244;28;20435;-85
2023/01/25 10:00:18;;;;;;;17.13;10.50;;;3.20;99.90;5.00;97981.00;;;;5067239;28;20219;-86
2023/01/25 10:03:16;;;;;;;15.20;9.60;;;3.30;99.90;5.10;97976.00;;;;5065225;28;20223;-87
2023/01/25 10:06:13;;;;;;;15.50;10.03;;;3.50;99.90;5.20;97978.00;;;;5070131;28;20246;-84
2023/01/25 10:09:14;;;;;;;14.57;10.10;;;4.20;99.90;5.40;97970.00;;;;5068205;28;20196;-86
2023/01/25 10:12:14;;;;;;;19.23;8.83;;;3.70;99.90;5.40;97974.00;;;;5060645;28;20666;-88
2023/01/25 10:15:12;;;;;;;14.90;8.33;;;3.80;99.90;5.50;97964.00;;;;5058808;28;20235;-88
2023/01/25 10:18:06;;;;;;;13.07;9.40;;;3.90;99.90;5.70;97962.00;;;;5067986;28;20691;-86
2023/01/25 10:20:59;;;;;;;9.77;7.77;;;4.00;99.90;5.90;97947.00;;;;5068840;28;20196;-86
2023/01/25 10:24:25;;;;;;;12.03;9.03;;;4.10;99.90;6.10;97947.00;;;;5068165;28;20275;-87
2023/01/25 10:27:27;;;;;;;11.07;8.40;;;4.20;99.90;6.10;97943.00;;;;5072230;28;20635;-87
2023/01/25 10:30:27;;;;;;;12.87;8.17;;;4.40;99.90;6.10;97944.00;;;;5069216;28;20269;-87
2023/01/25 10:33:20;;;;;;;12.03;8.17;;;4.40;99.90;6.10;97946.00;;;;5068517;28;20227;-86
2023/01/25 10:36:14;;;;;;;13.10;9.03;;;4.50;99.90;6.00;97937.00;;;;5065539;28;20203;-85
2023/01/25 10:39:06;;;;;;;10.57;7.83;;;4.50;99.90;6.00;97920.00;;;;5061946;28;20200;-85
2023/01/25 10:42:01;;;;;;;12.17;9.33;;;4.40;99.90;6.00;97919.00;;;;5070690;28;20693;-85
2023/01/25 10:44:50;;;;;;;13.33;8.90;;;4.50;99.90;5.90;97927.00;;;;5069753;28;20208;-87
2023/01/25 10:47:43;;;;;;;13.43;8.00;;;4.40;99.90;6.00;97914.00;;;;5068227;28;20317;-86
2023/01/25 10:50:51;;;;;;;15.27;8.97;;;5.20;99.90;5.90;97904.00;;;;5068342;28;20207;-85
2023/01/25 10:53:42;;;;;;;10.23;8.23;;;4.40;99.90;5.80;97911.00;;;;5068954;28;20227;-87
2023/01/25 10:56:34;;;;;;;13.60;9.90;;;4.40;99.90;5.80;97903.00;;;;5066732;28;20196;-86
2023/01/25 10:59:25;;;;;;;13.10;9.40;;;4.30;99.90;5.90;97915.00;;;;5069247;28;20214;-85
2023/01/25 11:02:46;;;;;;;14.10;9.43;;;4.30;99.90;5.80;97892.00;;;;5070386;28;20212;-85
2023/01/25 11:05:36;;;;;;;15.07;9.20;;;4.30;99.90;5.80;97890.00;;;;4986798;28;20206;-85
2023/01/25 11:08:33;;;;;;;13.07;8.37;;;4.30;99.90;5.80;97893.00;;;;5065780;28;20195;-86
2023/01/25 11:11:26;;;;;;;17.97;9.50;;;4.30;99.90;5.70;97890.00;;;;5062658;28;20208;-85
2023/01/25 11:14:18;;;;;;;13.60;9.10;;;4.30;99.90;5.60;97886.00;;;;5067269;28;20239;-85
2023/01/25 11:17:25;;;;;;;14.07;9.27;;;4.20;99.90;5.70;97882.00;;;;5068876;28;20772;-85
2023/01/25 11:20:20;;;;;;;14.03;8.23;;;4.20;99.90;5.60;97879.00;;;;5067010;28;20196;-84
2023/01/25 11:23:24;;;;;;;12.33;7.70;;;4.20;99.90;5.70;97865.00;;;;5064198;28;20599;-87
2023/01/25 11:26:16;;;;;;;11.27;8.20;;;4.10;99.90;5.60;97876.00;;;;5069521;28;20207;-86
2023/01/25 11:29:13;;;;;;;12.97;7.77;;;4.10;99.90;5.60;97866.00;;;;5068723;28;20199;-84
2023/01/25 11:32:22;;;;;;;12.27;7.90;;;4.60;99.90;5.50;97856.00;;;;5067694;28;20204;-84
2023/01/25 11:35:17;;;;;;;13.10;8.20;;;4.10;99.90;5.60;97853.00;;;;5070282;28;20277;-85
2023/01/25 11:38:13;;;;;;;10.73;8.07;;;4.10;99.90;5.70;97858.00;;;;5068914;28;20250;-85
2023/01/25 11:41:17;;;;;;;12.90;8.67;;;4.10;99.90;5.50;97847.00;;;;5070733;28;20204;-85
2023/01/25 11:44:51;;;;;;;9.97;6.90;;;4.10;99.90;5.50;97841.00;;;;5068937;28;20233;-84
2023/01/25 11:47:55;;;;;;;14.37;8.47;;;4.00;99.90;5.30;97838.00;;;;5067186;28;20713;-87
2023/01/25 11:50:51;;;;;;;12.60;8.90;;;4.00;99.90;5.30;97842.00;;;;5069505;28;20204;-85
2023/01/25 11:53:57;;;;;;;13.63;8.73;;;3.90;99.90;5.40;97822.00;;;;5066108;28;20227;-85
2023/01/25 11:56:58;;;;;;;16.13;9.30;;;3.90;99.90;5.30;97823.00;;;;5063122;28;20587;-84
2023/01/25 12:00:14;;;;;;;14.10;8.83;;;3.90;99.90;5.30;97821.00;;;;5061190;28;20658;-85
2023/01/25 12:03:50;;;;;;;21.30;9.53;;;3.90;99.90;5.20;97819.00;;;;5064819;28;20231;-83
2023/01/25 12:06:57;;;;;;;9.80;7.40;;;3.80;99.90;5.30;97817.00;;;;5066423;28;20579;-84
2023/01/25 12:10:04;;;;;;;9.30;8.17;;;3.80;99.90;5.20;97808.00;;;;5090662;28;20188;-84
2023/01/25 12:13:00;;;;;;;13.00;8.80;;;3.70;99.90;5.20;97806.00;;;;5072448;28;20242;-87
2023/01/25 12:16:08;;;;;;;16.07;9.03;;;3.70;99.90;5.20;97800.00;;;;5070426;28;20710;-87
2023/01/25 12:19:29;;;;;;;14.50;8.77;;;4.00;99.90;5.10;97795.00;;;;5069538;28;20195;-86
2023/01/25 12:22:42;;;;;;;11.70;8.87;;;3.70;99.90;4.90;97788.00;;;;5068974;28;20247;-85
2023/01/25 12:25:43;;;;;;;18.83;11.93;;;3.60;99.90;5.00;97787.00;;;;5068126;28;20223;-86
2023/01/25 12:28:49;;;;;;;18.37;13.43;;;3.60;99.90;5.00;97775.00;;;;5066737;28;20646;-85
2023/01/25 12:31:45;;;;;;;18.80;11.13;;;3.60;99.90;5.10;97786.00;;;;5070641;28;20203;-85
2023/01/25 12:34:38;;;;;;;18.00;11.10;;;3.60;99.90;5.10;97772.00;;;;5068803;28;20578;-85
2023/01/25 12:37:35;;;;;;;14.80;10.77;;;3.60;99.90;5.20;97765.00;;;;5068829;28;20203;-87
2023/01/25 12:40:40;;;;;;;13.20;9.23;;;4.40;99.90;5.20;97762.00;;;;5068848;28;20601;-85
2023/01/25 12:43:37;;;;;;;16.10;9.50;;;3.70;99.90;5.00;97746.00;;;;5070190;28;20238;-86
2023/01/25 12:46:30;;;;;;;13.03;9.00;;;3.70;99.90;4.90;97757.00;;;;5069557;28;20207;-86
2023/01/25 12:49:29;;;;;;;13.87;7.30;;;3.70;99.90;4.70;97747.00;;;;5068343;28;20192;-87
2023/01/25 12:52:32;;;;;;;10.53;7.40;;;3.60;99.90;4.80;97737.00;;;;5068887;28;20226;-84
2023/01/25 12:55:21;;;;;;;14.23;8.47;;;4.30;99.90;5.10;97743.00;;;;5069183;28;20756;-86
2023/01/25 12:58:22;;;;;;;14.23;9.10;;;3.60;99.90;5.20;97736.00;;;;5067940;28;20594;-87